Time;durP1;ratioP1;P1;durP2;ratioP2;P2;SDS_P1;SDS_P2;PMS_P1;PMS_P2;Temp;Humidity;BMP_temperature;BMP_pressure;BME280_temperature;BME280_humidity;BME280_pressure;Samples;Min_cycle;Max_cycle;Signal;HPM_P1;HPM_P2
2023/01/07 00:01:01;;;;;;;2.70;0.75;;;11.10;99.90;;;;;;4972803;28;20107;-95
2023/01/07 00:03:28;;;;;;;3.72;0.93;;;11.10;99.90;;;;;;4987765;28;20031;-95
2023/01/07 00:06:00;;;;;;;3.08;0.95;;;11.20;99.90;;;;;;4973211;28;20114;-95
2023/01/07 00:08:32;;;;;;;3.15;1.10;;;11.20;99.90;;;;;;4986023;28;20031;-95
2023/01/07 00:11:11;;;;;;;5.88;0.95;;;11.10;99.90;;;;;;4972511;28;20034;-95
2023/01/07 00:13:37;;;;;;;2.25;0.95;;;11.10;99.90;;;;;;4982460;28;20026;-94
2023/01/07 00:16:09;;;;;;;4.63;1.23;;;11.10;99.90;;;;;;4986052;28;20026;-95
2023/01/07 00:18:36;;;;;;;7.85;1.00;;;11.10;99.90;;;;;;4983041;28;20125;-96
2023/01/07 00:21:04;;;;;;;3.30;1.33;;;11.10;99.90;;;;;;4982835;28;20023;-96
2023/01/07 00:23:31;;;;;;;4.72;0.98;;;11.10;99.90;;;;;;4983401;28;20091;-96
2023/01/07 00:26:11;;;;;;;3.33;0.93;;;11.10;99.90;;;;;;4986338;28;20034;-96
2023/01/07 00:28:39;;;;;;;3.47;1.10;;;11.10;99.90;;;;;;4984165;28;20030;-96
2023/01/07 00:31:07;;;;;;;4.75;1.17;;;11.10;99.90;;;;;;4981835;28;20030;-95
2023/01/07 00:33:34;;;;;;;5.35;1.45;;;11.10;99.90;;;;;;4966696;28;20027;-95
2023/01/07 00:36:01;;;;;;;3.25;1.00;;;11.10;99.90;;;;;;4983136;28;20066;-95
2023/01/07 00:38:27;;;;;;;4.25;0.95;;;11.10;99.90;;;;;;4983816;28;20083;-96
2023/01/07 00:40:53;;;;;;;1.50;0.82;;;11.20;99.90;;;;;;4962574;28;20061;-93
2023/01/07 00:43:19;;;;;;;6.85;1.75;;;11.20;99.90;;;;;;4963499;28;20061;-95
2023/01/07 00:45:44;;;;;;;7.85;1.50;;;11.20;99.90;;;;;;4985758;28;20034;-96
2023/01/07 00:48:10;;;;;;;6.38;1.10;;;11.20;99.90;;;;;;4966538;28;20030;-95
2023/01/07 00:50:37;;;;;;;3.92;1.23;;;11.20;99.90;;;;;;4963061;28;20042;-96
2023/01/07 00:53:03;;;;;;;4.50;1.10;;;11.20;99.90;;;;;;4960863;28;20034;-96
2023/01/07 00:55:30;;;;;;;3.75;1.33;;;11.10;99.90;;;;;;4965087;28;20029;-95
2023/01/07 00:57:56;;;;;;;6.18;1.00;;;11.20;99.90;;;;;;4966155;28;20030;-96
2023/01/07 01:00:24;;;;;;;1.58;0.90;;;11.20;99.90;;;;;;4965796;28;20023;-96
2023/01/07 01:02:51;;;;;;;2.25;0.73;;;11.20;99.90;;;;;;4981634;28;20034;-96
2023/01/07 01:05:17;;;;;;;4.47;1.02;;;11.20;99.90;;;;;;4985834;28;20057;-95
2023/01/07 01:07:44;;;;;;;3.88;1.15;;;11.20;99.90;;;;;;4970701;28;20027;-96
2023/01/07 01:10:12;;;;;;;3.63;1.10;;;11.20;99.90;;;;;;4962583;28;20078;-96
2023/01/07 01:12:38;;;;;;;5.15;1.38;;;11.20;99.90;;;;;;4981628;28;20022;-96
2023/01/07 01:15:08;;;;;;;3.67;1.15;;;11.10;99.90;;;;;;4982410;28;20044;-95
2023/01/07 01:17:34;;;;;;;5.93;1.60;;;11.20;99.90;;;;;;4964880;28;20073;-95
2023/01/07 01:20:00;;;;;;;5.97;1.48;;;11.20;99.90;;;;;;4981307;28;20019;-96
2023/01/07 01:22:25;;;;;;;5.95;1.60;;;11.20;99.90;;;;;;4981107;28;20038;-95
2023/01/07 01:24:51;;;;;;;5.32;1.73;;;11.20;99.90;;;;;;4963875;28;20031;-96
2023/01/07 01:27:18;;;;;;;6.88;1.60;;;11.20;99.90;;;;;;4968780;28;20034;-94
2023/01/07 01:29:43;;;;;;;7.60;1.50;;;11.20;99.90;;;;;;4979524;28;20039;-95
2023/01/07 01:32:09;;;;;;;5.63;1.70;;;11.20;99.90;;;;;;4979106;28;20034;-96
2023/01/07 01:34:35;;;;;;;6.28;1.40;;;11.20;99.90;;;;;;4970249;28;20050;-94
2023/01/07 01:37:00;;;;;;;6.78;1.98;;;11.20;99.90;;;;;;4969546;28;20041;-95
2023/01/07 01:39:26;;;;;;;3.95;1.42;;;11.20;99.90;;;;;;4966617;28;20106;-96
2023/01/07 01:41:52;;;;;;;7.47;1.23;;;11.20;99.90;;;;;;4970828;28;20018;-95
2023/01/07 01:44:38;;;;;;;7.05;1.38;;;11.20;99.90;;;;;;4968474;28;20492;-96
2023/01/07 01:47:10;;;;;;;5.40;1.27;;;11.20;99.90;;;;;;4964267;28;20091;-96
2023/01/07 01:49:40;;;;;;;2.95;0.90;;;11.20;99.90;;;;;;4964590;28;20039;-95
2023/01/07 01:52:19;;;;;;;6.33;1.80;;;11.20;99.90;;;;;;4981644;28;20086;-96
2023/01/07 01:54:51;;;;;;;4.88;1.45;;;11.20;99.90;;;;;;4981541;28;20047;-96
2023/01/07 01:57:20;;;;;;;1.42;0.82;;;11.20;99.90;;;;;;4981172;28;20050;-95
2023/01/07 01:59:48;;;;;;;6.05;1.35;;;11.20;99.90;;;;;;4978215;28;20031;-95
2023/01/07 02:02:18;;;;;;;2.90;1.52;;;11.20;99.90;;;;;;4985451;28;20027;-95
2023/01/07 02:04:45;;;;;;;4.85;1.05;;;11.30;99.90;;;;;;4979260;28;20030;-94
2023/01/07 02:07:16;;;;;;;2.88;1.00;;;11.30;99.90;;;;;;4957014;28;20030;-96
2023/01/07 02:09:42;;;;;;;4.82;1.05;;;11.30;99.90;;;;;;4958842;28;20089;-95
2023/01/07 02:12:34;;;;;;;3.28;0.90;;;11.30;99.90;;;;;;4983675;28;20058;-95
2023/01/07 02:15:26;;;;;;;4.95;1.10;;;11.30;99.90;;;;;;4982355;28;20051;-94
2023/01/07 02:17:51;;;;;;;2.13;1.25;;;11.30;99.90;;;;;;4965514;28;20058;-95
2023/01/07 02:20:22;;;;;;;5.93;2.08;;;11.20;99.90;;;;;;4966576;28;20334;-96
2023/01/07 02:23:09;;;;;;;2.05;0.80;;;11.20;99.90;;;;;;4969994;28;20031;-94
2023/01/07 02:26:18;;;;;;;4.82;1.20;;;11.20;99.90;;;;;;4974919;28;20030;-96
2023/01/07 02:29:12;;;;;;;7.03;1.23;;;11.20;99.90;;;;;;4975726;28;20165;-96
2023/01/07 02:32:06;;;;;;;7.65;1.40;;;11.10;99.90;;;;;;4992553;28;20030;-95
2023/01/07 02:34:46;;;;;;;4.30;1.25;;;11.10;99.90;;;;;;4978498;28;20031;-95
2023/01/07 02:37:39;;;;;;;6.75;1.45;;;11.10;99.90;;;;;;4994399;28;20023;-95
2023/01/07 02:40:23;;;;;;;3.42;0.90;;;11.10;99.90;;;;;;5001127;28;20015;-91
2023/01/07 02:43:06;;;;;;;3.28;1.10;;;11.10;99.90;;;;;;5001937;28;20046;-91
2023/01/07 02:46:10;;;;;;;8.10;1.67;;;11.10;99.90;;;;;;4985291;28;20031;-92
2023/01/07 02:48:38;;;;;;;5.72;1.42;;;11.00;99.90;;;;;;5001668;28;20035;-92
2023/01/07 02:51:03;;;;;;;3.75;1.00;;;11.00;99.90;;;;;;4985182;28;20025;-93
2023/01/07 02:53:30;;;;;;;5.40;1.45;;;11.00;99.90;;;;;;4985082;28;20019;-91
2023/01/07 02:56:21;;;;;;;9.32;1.95;;;10.90;99.90;;;;;;4985059;28;20026;-92
2023/01/07 02:58:53;;;;;;;5.72;1.60;;;10.90;99.90;;;;;;4984949;28;20026;-90
2023/01/07 03:01:51;;;;;;;2.00;1.17;;;11.00;99.90;;;;;;4984764;28;20031;-91
2023/01/07 03:04:48;;;;;;;7.53;1.35;;;10.90;99.90;;;;;;4984886;28;20015;-93
2023/01/07 03:07:34;;;;;;;2.45;1.10;;;10.90;99.90;;;;;;5001207;28;20058;-91
2023/01/07 03:10:18;;;;;;;3.90;1.30;;;10.90;99.90;;;;;;4984283;28;20027;-92
2023/01/07 03:12:56;;;;;;;3.63;0.93;;;10.90;99.90;;;;;;4984047;28;20010;-93
2023/01/07 03:15:44;;;;;;;3.70;1.10;;;10.90;99.90;;;;;;5000897;28;20039;-90
2023/01/07 03:18:19;;;;;;;3.70;1.30;;;10.90;99.90;;;;;;4983290;28;20035;-92
2023/01/07 03:20:49;;;;;;;3.28;0.85;;;10.90;99.90;;;;;;4983796;28;20015;-91
2023/01/07 03:23:19;;;;;;;3.10;1.13;;;10.90;99.90;;;;;;4983960;28;20031;-93
2023/01/07 03:25:50;;;;;;;4.43;0.98;;;10.90;99.90;;;;;;5000706;28;20031;-92
2023/01/07 03:28:20;;;;;;;3.80;0.65;;;10.90;99.90;;;;;;4983682;28;20015;-93
2023/01/07 03:30:48;;;;;;;5.05;0.90;;;10.90;99.90;;;;;;4983035;28;20054;-93
2023/01/07 03:33:25;;;;;;;3.60;0.90;;;10.90;99.90;;;;;;5000480;28;20014;-92
2023/01/07 03:35:54;;;;;;;3.05;1.40;;;10.90;99.90;;;;;;4982808;28;20039;-90
2023/01/07 03:38:22;;;;;;;1.67;0.95;;;10.90;99.90;;;;;;4983579;28;20011;-91
2023/01/07 03:40:51;;;;;;;3.63;0.80;;;10.90;99.90;;;;;;4983595;28;20049;-92
2023/01/07 03:43:19;;;;;;;1.42;0.60;;;10.90;99.90;;;;;;4983547;28;20094;-91
2023/01/07 03:45:46;;;;;;;2.08;0.90;;;10.90;99.90;;;;;;4983695;28;20029;-91
2023/01/07 03:48:12;;;;;;;3.30;0.73;;;10.90;99.90;;;;;;4983685;28;20042;-91
2023/01/07 03:50:37;;;;;;;1.63;0.80;;;10.90;99.90;;;;;;4983558;28;20031;-91
2023/01/07 03:53:03;;;;;;;3.42;0.98;;;10.90;99.90;;;;;;4983647;28;20014;-90
2023/01/07 03:55:34;;;;;;;3.40;0.98;;;10.90;99.90;;;;;;4999323;28;20042;-94
2023/01/07 03:58:00;;;;;;;1.95;1.10;;;10.90;99.90;;;;;;5000017;28;20011;-91
2023/01/07 04:00:25;;;;;;;3.05;1.25;;;10.90;99.90;;;;;;4983454;28;20034;-91
2023/01/07 04:02:51;;;;;;;4.65;1.20;;;10.90;99.90;;;;;;5000120;28;20011;-92
2023/01/07 04:05:17;;;;;;;4.00;1.42;;;11.00;99.90;;;;;;5000172;28;20038;-91
2023/01/07 04:07:42;;;;;;;1.67;0.73;;;10.90;99.90;;;;;;4981520;28;20015;-92
2023/01/07 04:10:09;;;;;;;5.50;1.13;;;10.90;99.90;;;;;;4982782;28;20349;-91
2023/01/07 04:12:35;;;;;;;1.30;0.70;;;10.90;99.90;;;;;;4983060;28;20053;-93
2023/01/07 04:15:01;;;;;;;4.15;1.35;;;10.90;99.90;;;;;;4999238;28;20019;-91
2023/01/07 04:17:26;;;;;;;2.28;0.85;;;10.90;99.90;;;;;;4998963;28;20043;-91
2023/01/07 04:19:52;;;;;;;2.80;0.80;;;10.90;99.90;;;;;;4982398;28;20043;-93
2023/01/07 04:22:18;;;;;;;5.45;1.02;;;10.90;99.90;;;;;;4982736;28;20014;-95
2023/01/07 04:24:43;;;;;;;1.42;0.70;;;10.90;99.90;;;;;;4980983;28;20101;-90
2023/01/07 04:27:09;;;;;;;2.17;0.93;;;10.80;99.90;;;;;;4982510;28;20049;-92
2023/01/07 04:29:35;;;;;;;1.88;0.90;;;10.80;99.90;;;;;;4981327;28;20065;-94
2023/01/07 04:32:00;;;;;;;4.45;0.98;;;10.70;99.90;;;;;;4998566;28;20023;-91
2023/01/07 04:34:26;;;;;;;7.05;1.17;;;10.70;99.90;;;;;;4982323;28;20034;-92
2023/01/07 04:36:52;;;;;;;2.33;1.45;;;10.70;99.90;;;;;;4982435;28;20054;-91
2023/01/07 04:39:18;;;;;;;2.03;0.65;;;10.70;99.90;;;;;;4982248;28;20022;-92
2023/01/07 04:41:43;;;;;;;2.47;1.00;;;10.70;99.90;;;;;;4998906;28;20023;-92
2023/01/07 04:44:10;;;;;;;1.98;1.00;;;10.70;99.90;;;;;;4999184;28;20026;-94
2023/01/07 04:46:36;;;;;;;4.00;1.13;;;10.80;99.90;;;;;;4982133;28;20050;-94
2023/01/07 04:49:04;;;;;;;2.75;1.00;;;10.80;99.90;;;;;;4982566;28;20034;-90
2023/01/07 04:51:29;;;;;;;3.45;1.00;;;10.80;99.90;;;;;;4982304;28;20051;-89
2023/01/07 04:53:57;;;;;;;3.80;1.27;;;10.80;99.90;;;;;;4982479;28;20015;-91
2023/01/07 04:56:27;;;;;;;2.38;0.90;;;10.80;99.90;;;;;;4999070;28;20003;-90
2023/01/07 04:58:53;;;;;;;;;;;10.80;99.90;;;;;;4999428;28;20023;-90
2023/01/07 05:01:19;;;;;;;4.22;1.63;;;10.80;99.90;;;;;;4982341;28;19898;-91
2023/01/07 05:03:44;;;;;;;1.65;0.52;;;10.80;99.90;;;;;;4982219;28;20213;-90
2023/01/07 05:06:10;;;;;;;3.65;1.13;;;10.80;99.90;;;;;;4982378;28;20014;-91
2023/01/07 05:08:36;;;;;;;5.50;1.05;;;10.80;99.90;;;;;;4982408;28;20027;-91
2023/01/07 05:11:04;;;;;;;7.63;1.40;;;10.80;99.90;;;;;;4982410;28;20025;-92
2023/01/07 05:13:34;;;;;;;4.15;1.05;;;10.80;99.90;;;;;;4982581;28;20046;-91
2023/01/07 05:16:04;;;;;;;3.43;0.87;;;10.80;99.90;;;;;;4982496;28;20077;-91
2023/01/07 05:18:31;;;;;;;1.02;0.73;;;10.80;99.90;;;;;;4998895;28;20026;-92
2023/01/07 05:20:57;;;;;;;3.95;1.10;;;10.80;99.90;;;;;;4982347;28;20019;-91
2023/01/07 05:23:22;;;;;;;3.20;1.08;;;10.80;99.90;;;;;;4982276;28;20049;-91
2023/01/07 05:25:48;;;;;;;3.03;1.00;;;10.80;99.90;;;;;;4999061;28;20015;-91
2023/01/07 05:28:14;;;;;;;3.92;0.98;;;10.80;99.90;;;;;;4982125;28;20023;-91
2023/01/07 05:30:39;;;;;;;2.38;0.60;;;10.80;99.90;;;;;;4982088;28;20050;-90
2023/01/07 05:33:06;;;;;;;2.97;0.70;;;10.70;99.90;;;;;;4982285;28;20018;-89
2023/01/07 05:35:35;;;;;;;5.20;1.77;;;10.70;99.90;;;;;;4982313;28;20019;-88
2023/01/07 05:38:00;;;;;;;1.52;0.85;;;10.70;99.90;;;;;;4982305;28;20031;-89
2023/01/07 05:40:26;;;;;;;3.38;1.23;;;10.70;99.90;;;;;;4982070;28;20034;-89
2023/01/07 05:42:52;;;;;;;3.70;0.60;;;10.70;99.90;;;;;;4998673;28;20023;-92
2023/01/07 05:45:25;;;;;;;2.65;1.10;;;10.70;99.90;;;;;;4981964;28;20023;-91
2023/01/07 05:47:51;;;;;;;3.58;0.90;;;10.70;99.90;;;;;;4998743;28;20047;-91
2023/01/07 05:50:16;;;;;;;1.65;1.00;;;10.70;99.90;;;;;;4981957;28;20039;-89
2023/01/07 05:52:42;;;;;;;4.25;1.35;;;10.70;99.90;;;;;;4998353;28;20022;-95
2023/01/07 05:55:08;;;;;;;2.40;1.10;;;10.60;99.90;;;;;;4980372;28;20035;-96
2023/01/07 05:57:34;;;;;;;6.72;1.10;;;10.60;99.90;;;;;;4979792;28;20015;-93
2023/01/07 05:59:59;;;;;;;3.65;0.77;;;10.60;99.90;;;;;;4981264;28;20113;-94
2023/01/07 06:02:25;;;;;;;5.78;0.80;;;10.60;99.90;;;;;;4984646;28;20022;-95
2023/01/07 06:04:51;;;;;;;1.35;0.77;;;10.60;99.90;;;;;;4984377;28;20059;-95
2023/01/07 06:07:16;;;;;;;3.30;1.02;;;10.60;99.90;;;;;;4985482;28;20038;-91
2023/01/07 06:09:42;;;;;;;4.88;1.17;;;10.50;99.90;;;;;;4985571;28;20038;-90
2023/01/07 06:12:07;;;;;;;7.85;1.10;;;10.50;99.90;;;;;;4985827;28;20034;-90
2023/01/07 06:14:33;;;;;;;1.10;0.73;;;10.50;99.90;;;;;;4985881;28;20011;-89
2023/01/07 06:16:59;;;;;;;2.47;0.85;;;10.50;99.90;;;;;;4985633;28;20035;-89
2023/01/07 06:19:26;;;;;;;4.03;1.10;;;10.50;99.90;;;;;;4985691;28;20035;-91
2023/01/07 06:21:51;;;;;;;3.25;0.98;;;10.50;99.90;;;;;;4985430;28;20018;-90
2023/01/07 06:24:17;;;;;;;1.58;0.73;;;10.50;99.90;;;;;;4984945;28;20023;-91
2023/01/07 06:26:43;;;;;;;4.07;1.20;;;10.60;99.90;;;;;;4985134;28;20019;-89
2023/01/07 06:29:09;;;;;;;6.07;0.95;;;10.60;99.90;;;;;;4984944;28;20050;-88
2023/01/07 06:31:35;;;;;;;2.33;1.45;;;10.60;99.90;;;;;;5001905;28;20023;-88
2023/01/07 06:34:00;;;;;;;3.33;1.52;;;10.60;99.90;;;;;;5001595;28;20023;-89
2023/01/07 06:36:26;;;;;;;2.33;1.10;;;10.60;99.90;;;;;;5001783;28;20015;-88
2023/01/07 06:38:52;;;;;;;2.55;1.20;;;10.60;99.90;;;;;;4985159;28;20022;-89
2023/01/07 06:41:17;;;;;;;2.45;0.50;;;10.60;99.90;;;;;;5001471;28;20019;-88
2023/01/07 06:43:43;;;;;;;2.15;1.10;;;10.60;99.90;;;;;;5001543;28;20031;-89
2023/01/07 06:46:09;;;;;;;2.20;0.93;;;10.60;99.90;;;;;;5001853;28;20096;-90
2023/01/07 06:48:34;;;;;;;2.20;0.82;;;10.60;99.90;;;;;;4984904;28;20057;-89
2023/01/07 06:51:00;;;;;;;3.20;1.17;;;10.50;99.90;;;;;;4985011;28;20046;-88
2023/01/07 06:53:26;;;;;;;3.53;1.08;;;10.50;99.90;;;;;;4984700;28;20011;-91
2023/01/07 06:55:51;;;;;;;5.35;0.93;;;10.50;99.90;;;;;;4984735;28;20034;-89
2023/01/07 06:58:17;;;;;;;3.97;1.13;;;10.50;99.90;;;;;;5001084;28;20019;-90
2023/01/07 07:00:44;;;;;;;1.98;0.90;;;10.50;99.90;;;;;;4984158;28;20019;-93
2023/01/07 07:03:09;;;;;;;2.42;1.10;;;10.50;99.90;;;;;;4998634;28;20027;-94
2023/01/07 07:05:35;;;;;;;2.58;0.75;;;10.40;99.90;;;;;;4978851;28;20073;-95
2023/01/07 07:08:03;;;;;;;4.90;1.23;;;10.40;99.90;;;;;;4990548;28;20561;-94
2023/01/07 07:10:29;;;;;;;2.65;0.82;;;10.40;99.90;;;;;;4995672;28;20105;-96
2023/01/07 07:12:55;;;;;;;3.33;1.08;;;10.40;99.90;;;;;;4979709;28;20050;-96
2023/01/07 07:15:20;;;;;;;2.80;1.13;;;10.30;99.90;;;;;;4981601;28;20062;-93
2023/01/07 07:17:46;;;;;;;3.28;1.33;;;10.40;99.90;;;;;;4971609;28;20054;-96
2023/01/07 07:20:12;;;;;;;4.15;1.33;;;10.30;99.90;;;;;;4962914;28;20034;-94
2023/01/07 07:22:42;;;;;;;3.28;0.93;;;10.30;99.90;;;;;;4963761;28;20023;-95
2023/01/07 07:25:08;;;;;;;3.15;1.10;;;10.30;99.90;;;;;;4976250;28;20030;-95
2023/01/07 07:27:34;;;;;;;2.53;0.90;;;10.30;99.90;;;;;;4959862;28;20388;-95
2023/01/07 07:29:59;;;;;;;4.70;0.98;;;10.20;99.90;;;;;;4961733;28;20400;-95
2023/01/07 07:32:27;;;;;;;2.70;1.20;;;10.20;99.90;;;;;;4960304;28;20403;-95
2023/01/07 07:34:54;;;;;;;4.28;1.10;;;10.20;99.90;;;;;;4976647;28;20538;-94
2023/01/07 07:37:20;;;;;;;3.92;1.23;;;10.20;99.90;;;;;;4959818;28;20018;-95
2023/01/07 07:39:45;;;;;;;4.22;1.40;;;10.20;99.90;;;;;;4962620;28;20034;-94
2023/01/07 07:42:11;;;;;;;6.63;1.10;;;10.10;99.90;;;;;;4965175;28;20106;-95
2023/01/07 07:44:36;;;;;;;4.03;1.27;;;10.10;99.90;;;;;;4964683;28;20111;-96
2023/01/07 07:47:02;;;;;;;3.72;1.27;;;10.10;99.90;;;;;;4970959;28;20026;-96
2023/01/07 07:49:28;;;;;;;3.83;1.33;;;10.10;99.90;;;;;;4968847;28;20038;-95
2023/01/07 07:51:54;;;;;;;3.42;1.30;;;10.10;99.90;;;;;;4990242;28;20023;-95
2023/01/07 07:54:20;;;;;;;2.50;1.25;;;10.10;99.90;;;;;;4970895;28;20041;-95
2023/01/07 07:56:45;;;;;;;1.70;1.00;;;10.00;99.90;;;;;;4959624;28;20114;-95
2023/01/07 07:59:11;;;;;;;3.88;1.10;;;10.00;99.90;;;;;;4979172;28;20062;-96
2023/01/07 08:01:37;;;;;;;3.03;1.20;;;10.00;99.90;;;;;;4964129;28;20129;-95
2023/01/07 08:04:02;;;;;;;8.07;1.85;;;10.00;99.90;;;;;;4977311;28;20113;-95
2023/01/07 08:06:28;;;;;;;6.95;1.30;;;10.10;99.90;;;;;;4960849;28;20019;-95
2023/01/07 08:08:54;;;;;;;3.78;1.40;;;10.00;99.90;;;;;;4977328;28;20027;-95
2023/01/07 08:11:22;;;;;;;1.13;0.55;;;10.00;99.90;;;;;;4959116;28;20050;-94
2023/01/07 08:13:48;;;;;;;2.63;0.90;;;10.00;99.90;;;;;;4961467;28;20027;-95
2023/01/07 08:16:14;;;;;;;2.40;0.90;;;9.90;99.90;;;;;;4963422;28;20042;-96
2023/01/07 08:18:39;;;;;;;2.38;0.80;;;10.00;99.90;;;;;;4969143;28;20042;-96
2023/01/07 08:21:05;;;;;;;3.08;0.77;;;10.00;99.90;;;;;;4967046;28;20039;-96
2023/01/07 08:23:31;;;;;;;4.13;1.02;;;10.00;99.90;;;;;;4966629;28;20023;-95
2023/01/07 08:26:01;;;;;;;5.70;1.10;;;10.00;99.90;;;;;;4969928;28;20031;-95
2023/01/07 08:28:28;;;;;;;1.88;0.77;;;10.00;99.90;;;;;;4991436;28;20087;-96
2023/01/07 08:30:53;;;;;;;7.13;1.15;;;9.90;99.90;;;;;;4992484;28;20041;-90
2023/01/07 08:33:23;;;;;;;1.10;0.70;;;10.00;99.90;;;;;;4999227;28;20039;-95
2023/01/07 08:41:00;;;;;;;2.63;1.20;;;10.00;99.90;;;;;;5039750;23;20073;-91
2023/01/07 08:43:26;;;;;;;3.17;0.70;;;10.00;99.90;;;;;;4999709;28;20045;-96
2023/01/07 08:45:52;;;;;;;3.58;0.90;;;10.00;99.90;;;;;;4984585;28;20037;-94
2023/01/07 08:48:18;;;;;;;3.13;0.98;;;10.00;99.90;;;;;;4985630;28;20049;-94
2023/01/07 08:50:49;;;;;;;2.70;0.95;;;10.00;99.90;;;;;;4988085;28;20042;-96
2023/01/07 08:53:24;;;;;;;2.50;0.80;;;10.00;99.90;;;;;;4991540;28;20022;-95
2023/01/07 08:55:51;;;;;;;4.43;0.90;;;10.00;99.90;;;;;;4995986;28;20075;-95
2023/01/07 08:58:17;;;;;;;2.17;1.00;;;10.00;99.90;;;;;;4988466;28;20046;-96
2023/01/07 09:00:44;;;;;;;4.25;1.00;;;10.00;99.90;;;;;;5008893;28;20026;-96
2023/01/07 09:03:11;;;;;;;4.40;0.90;;;10.00;99.90;;;;;;4980635;28;20181;-95
2023/01/07 09:05:36;;;;;;;2.47;0.60;;;10.00;99.90;;;;;;4980173;28;20054;-95
2023/01/07 09:08:02;;;;;;;3.47;0.50;;;10.00;99.90;;;;;;4979236;28;20038;-95
2023/01/07 09:10:29;;;;;;;0.93;0.70;;;9.90;99.90;;;;;;4981118;28;20548;-95
2023/01/07 09:12:54;;;;;;;2.92;0.85;;;9.90;99.90;;;;;;4977847;28;20025;-94
2023/01/07 11:59:26;;;;;;;2.20;0.88;;;10.70;99.90;;;;;;4994181;28;20046;-93
2023/01/07 12:01:54;;;;;;;5.80;1.15;;;10.80;99.90;;;;;;4979232;28;20128;-93
2023/01/07 12:04:35;;;;;;;2.75;0.80;;;10.80;99.90;;;;;;4994083;28;20060;-93
2023/01/07 12:07:05;;;;;;;2.50;0.90;;;10.90;99.90;;;;;;4990185;28;20041;-93
2023/01/07 12:09:30;;;;;;;5.55;1.05;;;10.90;99.90;;;;;;4990928;28;20038;-93
2023/01/07 12:12:04;;;;;;;5.22;0.47;;;10.90;99.90;;;;;;4996464;28;20030;-93
2023/01/07 12:14:37;;;;;;;4.20;0.68;;;10.90;99.90;;;;;;4994671;28;20029;-94
2023/01/07 12:17:32;;;;;;;3.08;0.40;;;10.90;99.90;;;;;;4978533;28;20030;-95
2023/01/07 12:23:46;;;;;;;1.27;0.60;;;11.00;99.90;;;;;;4945819;29;20521;-95
2023/01/07 12:26:23;;;;;;;4.93;1.00;;;11.40;99.90;;;;;;4962621;28;20049;-94
2023/01/07 12:29:15;;;;;;;3.00;0.70;;;12.00;99.90;;;;;;4962200;28;20399;-94
2023/01/07 12:32:02;;;;;;;2.50;0.88;;;12.40;99.90;;;;;;4981675;28;20544;-92
2023/01/07 12:34:48;;;;;;;4.78;1.10;;;12.70;99.90;;;;;;4935242;28;20027;-93
2023/01/07 12:37:29;;;;;;;5.05;0.85;;;13.10;99.90;;;;;;4958423;28;20037;-93
2023/01/07 12:40:02;;;;;;;;;;;13.60;99.90;;;;;;4964920;28;20051;-92
2023/01/07 12:42:36;;;;;;;1.90;0.70;;;14.20;99.90;;;;;;4951832;28;19906;-93
2023/01/07 12:45:05;;;;;;;1.92;1.02;;;14.60;99.90;;;;;;4974077;28;20460;-93
2023/01/07 12:47:49;;;;;;;1.60;0.60;;;14.70;99.90;;;;;;4957353;28;20022;-93
2023/01/07 12:50:27;;;;;;;4.82;0.82;;;15.10;99.90;;;;;;4955617;28;20045;-94
2023/01/07 12:53:02;;;;;;;3.17;0.60;;;15.00;99.90;;;;;;4957502;28;20075;-92
2023/01/07 12:55:33;;;;;;;3.70;0.43;;;14.60;99.90;;;;;;4973958;28;20481;-93
2023/01/07 12:58:36;;;;;;;0.77;0.22;;;14.20;99.90;;;;;;4972802;28;20050;-93
2023/01/07 13:01:14;;;;;;;0.43;0.43;;;13.60;99.90;;;;;;4973198;28;20027;-93
2023/01/07 13:03:53;;;;;;;1.92;0.40;;;13.00;99.90;;;;;;4958598;28;20483;-93
2023/01/07 13:06:49;;;;;;;2.20;0.60;;;12.50;99.90;;;;;;4956094;28;20037;-92
2023/01/07 13:09:36;;;;;;;1.80;0.90;;;12.20;99.90;;;;;;4974545;28;20495;-91
2023/01/07 13:15:34;;;;;;;3.40;0.55;;;11.80;99.90;;;;;;4974095;28;20030;-93
2023/01/07 13:18:18;;;;;;;1.23;0.60;;;12.10;99.90;;;;;;4963568;28;20031;-92
2023/01/07 13:21:05;;;;;;;2.35;0.80;;;12.50;99.90;;;;;;4972689;28;20481;-91
2023/01/07 13:23:36;;;;;;;1.75;0.57;;;13.20;99.90;;;;;;4956396;28;20396;-93
2023/01/07 13:26:27;;;;;;;3.55;0.52;;;13.90;99.90;;;;;;4973071;28;20385;-92
2023/01/07 13:29:20;;;;;;;3.83;0.70;;;14.60;99.90;;;;;;4966706;28;20035;-93
2023/01/07 13:32:21;;;;;;;2.65;0.82;;;15.00;99.90;;;;;;4973564;28;20034;-93
2023/01/07 13:35:20;;;;;;;2.33;0.57;;;15.50;99.60;;;;;;4973440;28;20034;-91
2023/01/07 13:38:08;;;;;;;2.45;0.50;;;15.90;96.50;;;;;;4956413;28;20023;-94
2023/01/07 13:41:00;;;;;;;3.58;0.77;;;16.20;94.60;;;;;;4975097;28;20045;-92
2023/01/07 13:43:52;;;;;;;2.13;0.50;;;16.40;93.60;;;;;;4956076;28;20027;-93
2023/01/07 13:46:22;;;;;;;4.88;0.70;;;16.60;92.10;;;;;;4957629;28;20397;-95
2023/01/07 13:48:53;;;;;;;1.85;1.10;;;16.80;91.30;;;;;;4973930;28;20125;-94
2023/01/07 13:51:30;;;;;;;4.75;0.80;;;16.80;90.70;;;;;;4974764;28;20074;-93
2023/01/07 13:54:00;;;;;;;2.60;0.70;;;16.50;89.40;;;;;;4974485;28;20043;-93
2023/01/07 13:56:26;;;;;;;1.75;0.70;;;16.50;89.30;;;;;;4974452;28;20527;-93
2023/01/07 13:58:56;;;;;;;0.95;0.47;;;16.70;89.90;;;;;;4974210;28;20054;-93
2023/01/07 14:01:33;;;;;;;2.65;0.75;;;17.00;89.20;;;;;;4955143;28;20117;-93
2023/01/07 14:04:05;;;;;;;2.15;0.68;;;17.10;86.90;;;;;;4972033;28;20030;-94
2023/01/07 14:06:47;;;;;;;3.30;0.82;;;17.30;85.90;;;;;;4975843;28;20022;-94
2023/01/07 14:09:23;;;;;;;1.30;0.30;;;17.40;85.60;;;;;;4962361;28;20030;-93
2023/01/07 14:12:24;;;;;;;2.25;0.90;;;17.40;84.00;;;;;;4964281;28;20472;-95
2023/01/07 14:15:08;;;;;;;;;;;17.40;82.80;;;;;;4983052;28;20026;-94
2023/01/07 14:17:34;;;;;;;2.65;0.60;;;17.30;81.30;;;;;;4971652;28;19918;-92
2023/01/07 14:20:33;;;;;;;5.55;1.17;;;17.10;80.00;;;;;;4990972;28;20030;-93
2023/01/07 14:23:32;;;;;;;2.45;0.40;;;16.80;79.90;;;;;;4964529;28;20035;-94
2023/01/07 14:26:05;;;;;;;2.60;0.82;;;16.40;79.50;;;;;;4992201;28;20030;-95
2023/01/07 14:28:41;;;;;;;6.47;1.17;;;16.30;80.40;;;;;;4982791;28;20015;-95
2023/01/07 14:31:21;;;;;;;6.28;1.60;;;16.30;80.60;;;;;;4962390;28;20030;-96
2023/01/07 14:33:56;;;;;;;3.47;1.00;;;16.00;80.90;;;;;;4960271;28;20026;-94
2023/01/07 14:36:24;;;;;;;2.58;0.80;;;15.20;82.60;;;;;;4959646;28;20023;-95
2023/01/07 14:38:58;;;;;;;3.28;0.73;;;14.40;84.80;;;;;;4962231;28;20035;-95
2023/01/07 14:41:24;;;;;;;3.95;0.80;;;13.60;87.20;;;;;;4962601;28;20480;-94
2023/01/07 14:44:05;;;;;;;7.00;1.10;;;13.10;89.50;;;;;;4961316;28;20384;-94
2023/01/07 14:46:45;;;;;;;2.40;0.50;;;12.60;90.80;;;;;;4957301;28;20019;-93
2023/01/07 14:49:50;;;;;;;1.95;0.55;;;12.20;91.90;;;;;;4961101;28;20045;-94
2023/01/07 14:52:51;;;;;;;1.40;0.43;;;12.00;93.00;;;;;;4930695;28;20046;-93
2023/01/07 14:55:23;;;;;;;3.53;0.50;;;11.70;94.40;;;;;;4962575;28;20026;-94
2023/01/07 14:57:49;;;;;;;2.65;0.52;;;11.50;95.40;;;;;;4964011;28;20046;-93
2023/01/07 15:00:17;;;;;;;2.20;0.55;;;11.30;96.20;;;;;;4969617;28;20488;-93
2023/01/07 15:03:24;;;;;;;3.65;0.57;;;11.20;97.00;;;;;;4978297;28;20086;-95
2023/01/07 15:05:53;;;;;;;2.92;0.47;;;11.10;98.20;;;;;;4941558;28;20035;-95
2023/01/07 15:17:18;;;;;;;3.72;0.80;;;10.80;99.90;;;;;;4974775;28;20041;-94
2023/01/07 15:19:47;;;;;;;1.00;0.45;;;10.70;99.90;;;;;;4980199;28;20038;-94
2023/01/07 15:22:32;;;;;;;3.67;0.80;;;10.50;99.90;;;;;;4964049;28;20022;-94
2023/01/07 15:25:10;;;;;;;2.75;0.80;;;10.40;99.90;;;;;;4978941;28;20481;-93
2023/01/07 15:27:51;;;;;;;2.80;0.50;;;10.40;99.90;;;;;;4970191;28;20062;-94
2023/01/07 15:30:34;;;;;;;2.38;0.50;;;10.20;99.90;;;;;;4985151;28;20538;-94
2023/01/07 15:33:33;;;;;;;5.50;0.60;;;10.10;99.90;;;;;;4989027;28;20069;-95
2023/01/07 15:36:01;;;;;;;3.00;0.70;;;10.10;99.90;;;;;;4978699;28;20535;-91
2023/01/07 15:38:33;;;;;;;2.95;0.60;;;10.00;99.90;;;;;;5015052;28;20026;-93
2023/01/07 15:40:59;;;;;;;2.47;0.55;;;9.90;99.90;;;;;;5006929;28;20030;-93
2023/01/07 15:43:28;;;;;;;4.43;0.85;;;9.90;99.90;;;;;;4983392;28;20098;-93
2023/01/07 15:46:04;;;;;;;2.38;0.57;;;9.80;99.90;;;;;;4990339;28;20476;-95
2023/01/07 15:48:30;;;;;;;1.77;0.52;;;9.80;99.90;;;;;;4986564;28;20030;-93
2023/01/07 15:50:56;;;;;;;1.60;0.75;;;9.70;99.90;;;;;;4974437;28;20045;-94
2023/01/07 15:53:25;;;;;;;2.65;0.40;;;9.70;99.90;;;;;;4980736;28;20038;-94
2023/01/07 15:56:00;;;;;;;3.00;0.80;;;9.70;99.90;;;;;;4962552;28;20050;-94
2023/01/07 15:58:33;;;;;;;2.42;0.98;;;9.60;99.90;;;;;;4980105;28;20054;-94
2023/01/07 16:01:01;;;;;;;4.63;0.88;;;9.60;99.90;;;;;;4981697;28;20015;-95
2023/01/07 16:03:27;;;;;;;4.53;1.25;;;9.60;99.90;;;;;;4963299;28;20061;-95
2023/01/07 16:05:54;;;;;;;2.08;0.80;;;9.60;99.90;;;;;;4966505;28;20101;-94
2023/01/07 16:08:31;;;;;;;2.60;0.77;;;9.60;99.90;;;;;;4962440;28;20034;-93
2023/01/07 16:11:02;;;;;;;7.13;1.25;;;9.60;99.90;;;;;;4977074;28;20035;-93
2023/01/07 16:13:35;;;;;;;4.60;0.80;;;9.50;99.90;;;;;;4963820;28;20493;-94
2023/01/07 16:16:18;;;;;;;2.83;0.75;;;9.60;99.90;;;;;;4975696;28;20023;-96